sensor_id;sensor_type;location;lat;lon;timestamp;pressure;altitude;pressure_sealevel;temperature;humidity
64298;BME280;50639;53.270;7.956;2024-02-23T00:00:30;98003.16;;;6.43;90.10
64298;BME280;50639;53.270;7.956;2024-02-23T00:02:56;98016.16;;;6.42;90.75
64298;BME280;50639;53.270;7.956;2024-02-23T00:05:23;98019.53;;;6.42;90.82
64298;BME280;50639;53.270;7.956;2024-02-23T00:07:49;98030.22;;;6.28;90.36
64298;BME280;50639;53.270;7.956;2024-02-23T00:10:14;98024.00;;;6.21;90.73
64298;BME280;50639;53.270;7.956;2024-02-23T00:12:41;98050.53;;;6.22;90.83
64298;BME280;50639;53.270;7.956;2024-02-23T00:15:07;98054.28;;;6.18;90.96
64298;BME280;50639;53.270;7.956;2024-02-23T00:17:32;98056.19;;;6.16;90.93
64298;BME280;50639;53.270;7.956;2024-02-23T00:19:58;98070.78;;;6.06;90.59
64298;BME280;50639;53.270;7.956;2024-02-23T00:22:24;98078.88;;;6.01;91.11
64298;BME280;50639;53.270;7.956;2024-02-23T00:24:51;98100.66;;;5.97;91.91
64298;BME280;50639;53.270;7.956;2024-02-23T00:27:16;98093.31;;;5.92;91.97
64298;BME280;50639;53.270;7.956;2024-02-23T00:29:42;98071.25;;;5.90;93.20
64298;BME280;50639;53.270;7.956;2024-02-23T00:32:07;98120.06;;;5.90;91.64
64298;BME280;50639;53.270;7.956;2024-02-23T00:34:33;98115.28;;;5.85;91.39
64298;BME280;50639;53.270;7.956;2024-02-23T00:36:59;98142.84;;;5.83;92.00
64298;BME280;50639;53.270;7.956;2024-02-23T00:39:24;98147.19;;;5.83;92.07
64298;BME280;50639;53.270;7.956;2024-02-23T00:41:50;98156.75;;;5.81;92.04
64298;BME280;50639;53.270;7.956;2024-02-23T00:44:15;98152.84;;;5.77;91.34
64298;BME280;50639;53.270;7.956;2024-02-23T00:46:41;98183.91;;;5.74;91.92
64298;BME280;50639;53.270;7.956;2024-02-23T00:49:06;98159.25;;;5.61;92.84
64298;BME280;50639;53.270;7.956;2024-02-23T00:51:32;98196.44;;;5.67;92.75
64298;BME280;50639;53.270;7.956;2024-02-23T00:53:57;98198.44;;;5.63;93.39
64298;BME280;50639;53.270;7.956;2024-02-23T00:56:23;98202.94;;;5.50;94.16
64298;BME280;50639;53.270;7.956;2024-02-23T00:58:49;98207.03;;;5.53;94.88
64298;BME280;50639;53.270;7.956;2024-02-23T01:01:14;98217.78;;;5.47;94.31
64298;BME280;50639;53.270;7.956;2024-02-23T01:03:39;98235.94;;;5.55;94.44
64298;BME280;50639;53.270;7.956;2024-02-23T01:06:05;98241.63;;;5.38;94.86
64298;BME280;50639;53.270;7.956;2024-02-23T01:08:33;98252.81;;;5.37;94.49
64298;BME280;50639;53.270;7.956;2024-02-23T01:11:00;98252.97;;;5.35;95.00
64298;BME280;50639;53.270;7.956;2024-02-23T01:13:25;98249.25;;;5.28;94.78
64298;BME280;50639;53.270;7.956;2024-02-23T01:15:51;98261.13;;;5.29;95.05
64298;BME280;50639;53.270;7.956;2024-02-23T01:18:17;98283.56;;;5.27;94.98
64298;BME280;50639;53.270;7.956;2024-02-23T01:20:42;98276.78;;;5.26;95.52
64298;BME280;50639;53.270;7.956;2024-02-23T01:23:08;98277.94;;;5.33;94.56
64298;BME280;50639;53.270;7.956;2024-02-23T01:25:33;98280.38;;;5.35;94.82
64298;BME280;50639;53.270;7.956;2024-02-23T01:28:00;98285.41;;;5.36;94.15
64298;BME280;50639;53.270;7.956;2024-02-23T01:30:25;98299.16;;;5.35;95.26
64298;BME280;50639;53.270;7.956;2024-02-23T01:32:51;98299.00;;;5.37;94.98
64298;BME280;50639;53.270;7.956;2024-02-23T01:35:16;98319.22;;;5.30;94.25
64298;BME280;50639;53.270;7.956;2024-02-23T01:37:41;98324.13;;;5.33;94.12
64298;BME280;50639;53.270;7.956;2024-02-23T01:40:07;98330.31;;;5.30;94.20
64298;BME280;50639;53.270;7.956;2024-02-23T01:42:33;98335.81;;;5.26;94.12
64298;BME280;50639;53.270;7.956;2024-02-23T01:44:58;98345.38;;;5.24;93.29
64298;BME280;50639;53.270;7.956;2024-02-23T01:47:25;98347.56;;;5.28;92.49
64298;BME280;50639;53.270;7.956;2024-02-23T01:49:54;98368.69;;;5.32;92.82
64298;BME280;50639;53.270;7.956;2024-02-23T01:52:21;98366.81;;;5.34;92.39
64298;BME280;50639;53.270;7.956;2024-02-23T01:54:47;98369.72;;;5.29;91.64
64298;BME280;50639;53.270;7.956;2024-02-23T01:57:14;98384.31;;;5.29;91.82
64298;BME280;50639;53.270;7.956;2024-02-23T01:59:39;98382.56;;;5.29;92.01
64298;BME280;50639;53.270;7.956;2024-02-23T02:02:06;98385.25;;;5.28;91.38
64298;BME280;50639;53.270;7.956;2024-02-23T02:04:32;98399.84;;;5.16;91.51
64298;BME280;50639;53.270;7.956;2024-02-23T02:06:59;98405.44;;;5.10;91.99
64298;BME280;50639;53.270;7.956;2024-02-23T02:09:25;98394.97;;;4.91;92.44
64298;BME280;50639;53.270;7.956;2024-02-23T02:11:51;98418.06;;;4.91;92.40
64298;BME280;50639;53.270;7.956;2024-02-23T02:14:17;98430.06;;;4.90;91.72
64298;BME280;50639;53.270;7.956;2024-02-23T02:16:43;98433.22;;;4.83;91.07
64298;BME280;50639;53.270;7.956;2024-02-23T02:19:12;98411.50;;;4.76;91.53
64298;BME280;50639;53.270;7.956;2024-02-23T02:21:38;98411.84;;;4.60;90.78
64298;BME280;50639;53.270;7.956;2024-02-23T02:24:07;98419.28;;;4.52;91.67
64298;BME280;50639;53.270;7.956;2024-02-23T02:26:34;98450.84;;;4.52;91.52
64298;BME280;50639;53.270;7.956;2024-02-23T02:29:00;98446.66;;;4.51;91.91
64298;BME280;50639;53.270;7.956;2024-02-23T02:31:25;98438.16;;;4.51;91.63
64298;BME280;50639;53.270;7.956;2024-02-23T02:33:51;98428.56;;;4.42;92.97
64298;BME280;50639;53.270;7.956;2024-02-23T02:36:16;98453.47;;;4.40;92.46
64298;BME280;50639;53.270;7.956;2024-02-23T02:38:41;98460.59;;;4.36;92.10
64298;BME280;50639;53.270;7.956;2024-02-23T02:41:08;98468.06;;;4.39;92.70
64298;BME280;50639;53.270;7.956;2024-02-23T02:43:34;98470.03;;;4.36;91.86
64298;BME280;50639;53.270;7.956;2024-02-23T02:45:59;98474.22;;;4.37;92.81
64298;BME280;50639;53.270;7.956;2024-02-23T02:48:25;98481.91;;;4.37;92.11
64298;BME280;50639;53.270;7.956;2024-02-23T02:50:51;98483.78;;;4.35;92.25
64298;BME280;50639;53.270;7.956;2024-02-23T02:53:17;98486.59;;;4.43;92.81
64298;BME280;50639;53.270;7.956;2024-02-23T02:55:43;98492.91;;;4.50;93.07
64298;BME280;50639;53.270;7.956;2024-02-23T02:58:10;98508.06;;;4.53;93.14
64298;BME280;50639;53.270;7.956;2024-02-23T03:00:36;98505.97;;;4.58;93.17
64298;BME280;50639;53.270;7.956;2024-02-23T03:03:01;98509.97;;;4.62;93.85
64298;BME280;50639;53.270;7.956;2024-02-23T03:05:27;98513.22;;;4.64;93.81
64298;BME280;50639;53.270;7.956;2024-02-23T03:07:52;98515.13;;;4.73;93.65
64298;BME280;50639;53.270;7.956;2024-02-23T03:10:18;98519.91;;;4.78;93.83
64298;BME280;50639;53.270;7.956;2024-02-23T03:12:43;98510.00;;;4.84;93.28
64298;BME280;50639;53.270;7.956;2024-02-23T03:15:09;98518.41;;;4.86;93.80
64298;BME280;50639;53.270;7.956;2024-02-23T03:17:37;98523.06;;;4.92;93.58
64298;BME280;50639;53.270;7.956;2024-02-23T03:20:03;98530.44;;;4.97;93.29
64298;BME280;50639;53.270;7.956;2024-02-23T03:22:35;98537.00;;;5.01;93.22
64298;BME280;50639;53.270;7.956;2024-02-23T03:25:01;98530.22;;;5.00;93.16
64298;BME280;50639;53.270;7.956;2024-02-23T03:27:34;98538.50;;;5.04;92.97
64298;BME280;50639;53.270;7.956;2024-02-23T03:30:00;98533.94;;;4.96;93.21
64298;BME280;50639;53.270;7.956;2024-02-23T03:32:25;98540.25;;;4.92;93.14
64298;BME280;50639;53.270;7.956;2024-02-23T03:34:51;98547.31;;;4.88;93.78
64298;BME280;50639;53.270;7.956;2024-02-23T03:37:17;98557.47;;;4.90;93.81
64298;BME280;50639;53.270;7.956;2024-02-23T03:39:42;98552.66;;;4.85;94.16
64298;BME280;50639;53.270;7.956;2024-02-23T03:42:08;98539.16;;;4.95;93.78
64298;BME280;50639;53.270;7.956;2024-02-23T03:44:33;98571.63;;;5.07;94.11
64298;BME280;50639;53.270;7.956;2024-02-23T03:46:59;98573.72;;;5.13;93.91
64298;BME280;50639;53.270;7.956;2024-02-23T03:49:24;98586.34;;;5.16;94.27
64298;BME280;50639;53.270;7.956;2024-02-23T03:51:50;98590.16;;;5.10;94.86
64298;BME280;50639;53.270;7.956;2024-02-23T03:54:15;98585.59;;;5.03;94.74
64298;BME280;50639;53.270;7.956;2024-02-23T03:56:41;98583.84;;;5.03;95.54
64298;BME280;50639;53.270;7.956;2024-02-23T03:59:07;98597.75;;;5.01;95.71
64298;BME280;50639;53.270;7.956;2024-02-23T04:01:37;98578.72;;;5.03;96.54
64298;BME280;50639;53.270;7.956;2024-02-23T04:04:03;98585.84;;;5.00;96.61
64298;BME280;50639;53.270;7.956;2024-02-23T04:06:28;98587.47;;;5.01;96.64
64298;BME280;50639;53.270;7.956;2024-02-23T04:08:54;98600.50;;;4.98;96.37
64298;BME280;50639;53.270;7.956;2024-02-23T04:11:19;98620.56;;;5.04;96.60
64298;BME280;50639;53.270;7.956;2024-02-23T04:13:44;98608.56;;;5.04;97.15
64298;BME280;50639;53.270;7.956;2024-02-23T04:16:10;98609.03;;;4.98;97.02
64298;BME280;50639;53.270;7.956;2024-02-23T04:18:36;98624.47;;;5.09;96.86
64298;BME280;50639;53.270;7.956;2024-02-23T04:21:01;98626.91;;;5.11;96.16
64298;BME280;50639;53.270;7.956;2024-02-23T04:23:27;98626.44;;;5.06;95.28
64298;BME280;50639;53.270;7.956;2024-02-23T04:25:52;98640.44;;;5.13;96.47
64298;BME280;50639;53.270;7.956;2024-02-23T04:28:17;98634.47;;;5.01;94.97
64298;BME280;50639;53.270;7.956;2024-02-23T04:30:43;98633.34;;;4.81;94.97
64298;BME280;50639;53.270;7.956;2024-02-23T04:33:08;98650.41;;;4.70;94.49
64298;BME280;50639;53.270;7.956;2024-02-23T04:35:34;98657.94;;;4.60;95.23
64298;BME280;50639;53.270;7.956;2024-02-23T04:37:59;98656.44;;;4.45;95.79
64298;BME280;50639;53.270;7.956;2024-02-23T04:40:25;98657.47;;;4.42;95.62
64298;BME280;50639;53.270;7.956;2024-02-23T04:42:50;98671.09;;;4.43;95.78
64298;BME280;50639;53.270;7.956;2024-02-23T04:45:16;98662.94;;;4.38;95.13
64298;BME280;50639;53.270;7.956;2024-02-23T04:47:41;98678.41;;;4.36;96.14
64298;BME280;50639;53.270;7.956;2024-02-23T04:50:07;98687.63;;;4.39;95.03
64298;BME280;50639;53.270;7.956;2024-02-23T04:52:33;98680.78;;;4.39;95.10
64298;BME280;50639;53.270;7.956;2024-02-23T04:54:59;98696.25;;;4.38;95.03
64298;BME280;50639;53.270;7.956;2024-02-23T04:57:24;98696.44;;;4.35;95.05
64298;BME280;50639;53.270;7.956;2024-02-23T04:59:50;98696.16;;;4.39;95.30
64298;BME280;50639;53.270;7.956;2024-02-23T05:02:15;98695.31;;;4.39;94.30
64298;BME280;50639;53.270;7.956;2024-02-23T05:04:41;98712.84;;;4.45;94.09
64298;BME280;50639;53.270;7.956;2024-02-23T05:07:06;98704.72;;;4.51;93.79
64298;BME280;50639;53.270;7.956;2024-02-23T05:09:32;98709.84;;;4.51;93.68
64298;BME280;50639;53.270;7.956;2024-02-23T05:12:01;98709.34;;;4.46;93.15
64298;BME280;50639;53.270;7.956;2024-02-23T05:14:27;98708.63;;;4.44;92.62
64298;BME280;50639;53.270;7.956;2024-02-23T05:16:52;98705.69;;;4.37;92.82
64298;BME280;50639;53.270;7.956;2024-02-23T05:19:17;98714.09;;;4.27;93.70
64298;BME280;50639;53.270;7.956;2024-02-23T05:21:43;98717.09;;;4.21;93.36
64298;BME280;50639;53.270;7.956;2024-02-23T05:24:11;98726.41;;;4.22;93.98
64298;BME280;50639;53.270;7.956;2024-02-23T05:26:36;98727.00;;;4.25;94.09
64298;BME280;50639;53.270;7.956;2024-02-23T05:29:02;98734.69;;;4.25;93.13
64298;BME280;50639;53.270;7.956;2024-02-23T05:31:49;98733.78;;;4.26;93.84
64298;BME280;50639;53.270;7.956;2024-02-23T05:34:15;98727.44;;;4.19;93.17
64298;BME280;50639;53.270;7.956;2024-02-23T05:36:40;98737.34;;;4.24;93.12
64298;BME280;50639;53.270;7.956;2024-02-23T05:39:06;98735.31;;;4.16;94.11
64298;BME280;50639;53.270;7.956;2024-02-23T05:41:33;98739.94;;;4.11;94.12
64298;BME280;50639;53.270;7.956;2024-02-23T05:43:59;98755.09;;;4.14;93.91
64298;BME280;50639;53.270;7.956;2024-02-23T05:46:24;98762.91;;;4.12;94.66
64298;BME280;50639;53.270;7.956;2024-02-23T05:48:49;98760.09;;;4.15;94.26
64298;BME280;50639;53.270;7.956;2024-02-23T05:51:15;98768.63;;;4.16;94.39
64298;BME280;50639;53.270;7.956;2024-02-23T05:53:40;98773.22;;;4.24;94.75
64298;BME280;50639;53.270;7.956;2024-02-23T05:56:06;98770.13;;;4.31;94.72
64298;BME280;50639;53.270;7.956;2024-02-23T05:58:31;98774.63;;;4.40;93.80
64298;BME280;50639;53.270;7.956;2024-02-23T06:00:57;98772.59;;;4.33;93.98
64298;BME280;50639;53.270;7.956;2024-02-23T06:03:22;98779.06;;;4.26;94.01
64298;BME280;50639;53.270;7.956;2024-02-23T06:05:48;98778.66;;;4.32;94.65
64298;BME280;50639;53.270;7.956;2024-02-23T06:08:13;98786.84;;;4.37;94.16
64298;BME280;50639;53.270;7.956;2024-02-23T06:10:38;98801.91;;;4.41;94.11
64298;BME280;50639;53.270;7.956;2024-02-23T06:13:04;98797.31;;;4.46;93.50
64298;BME280;50639;53.270;7.956;2024-02-23T06:15:29;98806.41;;;4.50;92.95
64298;BME280;50639;53.270;7.956;2024-02-23T06:17:55;98810.94;;;4.47;92.84
64298;BME280;50639;53.270;7.956;2024-02-23T06:20:20;98809.22;;;4.47;92.85
64298;BME280;50639;53.270;7.956;2024-02-23T06:22:45;98819.13;;;4.52;92.88
64298;BME280;50639;53.270;7.956;2024-02-23T06:25:11;98817.41;;;4.52;93.02
64298;BME280;50639;53.270;7.956;2024-02-23T06:27:37;98824.06;;;4.55;93.45
64298;BME280;50639;53.270;7.956;2024-02-23T06:30:03;98834.63;;;4.63;93.50
64298;BME280;50639;53.270;7.956;2024-02-23T06:32:30;98826.41;;;4.71;93.25
64298;BME280;50639;53.270;7.956;2024-02-23T06:34:55;98835.41;;;4.76;92.25
64298;BME280;50639;53.270;7.956;2024-02-23T06:37:21;98833.25;;;4.83;92.30
64298;BME280;50639;53.270;7.956;2024-02-23T06:39:46;98841.16;;;4.80;92.94
64298;BME280;50639;53.270;7.956;2024-02-23T06:42:16;98844.94;;;4.87;92.69
64298;BME280;50639;53.270;7.956;2024-02-23T06:44:43;98839.22;;;4.83;92.03
64298;BME280;50639;53.270;7.956;2024-02-23T06:47:08;98853.44;;;4.87;92.95
64298;BME280;50639;53.270;7.956;2024-02-23T06:49:33;98847.00;;;4.82;92.06
64298;BME280;50639;53.270;7.956;2024-02-23T06:52:00;98862.69;;;4.90;91.77
64298;BME280;50639;53.270;7.956;2024-02-23T06:54:25;98863.72;;;5.00;92.09
64298;BME280;50639;53.270;7.956;2024-02-23T06:56:51;98867.78;;;5.03;91.91
64298;BME280;50639;53.270;7.956;2024-02-23T06:59:17;98869.63;;;5.13;90.85
64298;BME280;50639;53.270;7.956;2024-02-23T07:01:50;98856.69;;;5.15;91.07
64298;BME280;50639;53.270;7.956;2024-02-23T07:04:15;98870.63;;;5.11;90.12
64298;BME280;50639;53.270;7.956;2024-02-23T07:06:41;98876.88;;;5.19;90.93
64298;BME280;50639;53.270;7.956;2024-02-23T07:09:06;98887.47;;;5.27;91.18
64298;BME280;50639;53.270;7.956;2024-02-23T07:11:31;98876.38;;;5.27;90.67
64298;BME280;50639;53.270;7.956;2024-02-23T07:13:57;98872.44;;;5.34;90.30
64298;BME280;50639;53.270;7.956;2024-02-23T07:16:22;98872.94;;;5.39;90.20
64298;BME280;50639;53.270;7.956;2024-02-23T07:18:48;98889.97;;;5.40;89.97
64298;BME280;50639;53.270;7.956;2024-02-23T07:21:13;98887.31;;;5.42;89.98
64298;BME280;50639;53.270;7.956;2024-02-23T07:23:39;98899.69;;;5.48;89.88
64298;BME280;50639;53.270;7.956;2024-02-23T07:26:04;98904.00;;;5.47;89.45
64298;BME280;50639;53.270;7.956;2024-02-23T07:28:30;98917.78;;;5.46;89.57
64298;BME280;50639;53.270;7.956;2024-02-23T07:30:55;98911.13;;;5.44;89.06
64298;BME280;50639;53.270;7.956;2024-02-23T07:33:21;98913.41;;;5.36;89.94
64298;BME280;50639;53.270;7.956;2024-02-23T07:35:46;98908.66;;;5.42;89.81
64298;BME280;50639;53.270;7.956;2024-02-23T07:38:11;98913.16;;;5.51;89.87
64298;BME280;50639;53.270;7.956;2024-02-23T07:40:37;98917.66;;;5.60;89.08
64298;BME280;50639;53.270;7.956;2024-02-23T07:43:02;98920.78;;;5.64;88.06
64298;BME280;50639;53.270;7.956;2024-02-23T07:45:28;98912.56;;;5.72;88.06
64298;BME280;50639;53.270;7.956;2024-02-23T07:47:53;98919.66;;;5.68;86.97
64298;BME280;50639;53.270;7.956;2024-02-23T07:50:19;98916.06;;;5.71;87.50
64298;BME280;50639;53.270;7.956;2024-02-23T07:52:44;98921.06;;;5.72;87.19
64298;BME280;50639;53.270;7.956;2024-02-23T07:55:10;98926.63;;;5.79;87.17
64298;BME280;50639;53.270;7.956;2024-02-23T07:57:36;98920.00;;;5.87;87.11
64298;BME280;50639;53.270;7.956;2024-02-23T08:00:01;98928.84;;;5.83;86.30
64298;BME280;50639;53.270;7.956;2024-02-23T08:02:37;98934.28;;;5.91;86.36
64298;BME280;50639;53.270;7.956;2024-02-23T08:05:03;98942.50;;;5.96;85.84
64298;BME280;50639;53.270;7.956;2024-02-23T08:07:29;98946.19;;;5.92;86.11
64298;BME280;50639;53.270;7.956;2024-02-23T08:09:56;98943.59;;;6.05;86.07
64298;BME280;50639;53.270;7.956;2024-02-23T08:12:22;98947.56;;;6.09;85.52
64298;BME280;50639;53.270;7.956;2024-02-23T08:14:47;98946.91;;;6.18;84.74
64298;BME280;50639;53.270;7.956;2024-02-23T08:17:14;98942.47;;;6.20;84.80
64298;BME280;50639;53.270;7.956;2024-02-23T08:19:40;98949.72;;;6.26;85.41
64298;BME280;50639;53.270;7.956;2024-02-23T08:22:05;98952.81;;;6.31;84.55
64298;BME280;50639;53.270;7.956;2024-02-23T08:24:31;98949.78;;;6.37;84.19
64298;BME280;50639;53.270;7.956;2024-02-23T08:26:56;98951.31;;;6.40;83.94
64298;BME280;50639;53.270;7.956;2024-02-23T08:29:22;98943.72;;;6.38;83.86
64298;BME280;50639;53.270;7.956;2024-02-23T08:31:48;98943.72;;;6.38;84.49
64298;BME280;50639;53.270;7.956;2024-02-23T08:34:13;98940.94;;;6.41;84.45
64298;BME280;50639;53.270;7.956;2024-02-23T08:36:39;98940.09;;;6.41;84.99
64298;BME280;50639;53.270;7.956;2024-02-23T08:39:04;98949.56;;;6.40;84.42
64298;BME280;50639;53.270;7.956;2024-02-23T08:41:30;98942.13;;;6.25;84.70
64298;BME280;50639;53.270;7.956;2024-02-23T08:43:55;98945.03;;;6.20;84.33
64298;BME280;50639;53.270;7.956;2024-02-23T08:46:21;98942.03;;;6.26;85.27
64298;BME280;50639;53.270;7.956;2024-02-23T08:48:47;98944.03;;;6.34;85.46
64298;BME280;50639;53.270;7.956;2024-02-23T08:51:12;98941.56;;;6.21;83.96
64298;BME280;50639;53.270;7.956;2024-02-23T08:53:38;98949.25;;;6.21;84.00
64298;BME280;50639;53.270;7.956;2024-02-23T08:56:05;98950.19;;;6.20;83.71
64298;BME280;50639;53.270;7.956;2024-02-23T08:58:31;98959.53;;;6.21;84.56
64298;BME280;50639;53.270;7.956;2024-02-23T09:00:57;98957.38;;;6.39;84.10
64298;BME280;50639;53.270;7.956;2024-02-23T09:03:22;98955.94;;;6.59;83.27
64298;BME280;50639;53.270;7.956;2024-02-23T09:05:48;98967.66;;;6.74;82.96
64298;BME280;50639;53.270;7.956;2024-02-23T09:08:13;98965.56;;;6.90;82.18
64298;BME280;50639;53.270;7.956;2024-02-23T09:10:39;98962.41;;;6.98;82.04
64298;BME280;50639;53.270;7.956;2024-02-23T09:13:05;98958.69;;;7.02;80.21
64298;BME280;50639;53.270;7.956;2024-02-23T09:15:31;98959.03;;;7.08;80.82
64298;BME280;50639;53.270;7.956;2024-02-23T09:17:56;98975.31;;;7.09;80.90
64298;BME280;50639;53.270;7.956;2024-02-23T09:20:22;98976.59;;;7.14;81.37
64298;BME280;50639;53.270;7.956;2024-02-23T09:22:48;98969.13;;;7.11;80.05
64298;BME280;50639;53.270;7.956;2024-02-23T09:25:14;98967.94;;;7.15;80.71
64298;BME280;50639;53.270;7.956;2024-02-23T09:27:40;98976.84;;;7.11;80.09
64298;BME280;50639;53.270;7.956;2024-02-23T09:30:17;98971.00;;;7.21;80.14
64298;BME280;50639;53.270;7.956;2024-02-23T09:32:43;98967.94;;;7.15;80.08
64298;BME280;50639;53.270;7.956;2024-02-23T09:35:10;98973.91;;;7.16;79.91
64298;BME280;50639;53.270;7.956;2024-02-23T09:37:35;98972.16;;;7.16;80.00
64298;BME280;50639;53.270;7.956;2024-02-23T09:40:00;98971.56;;;7.24;78.98
64298;BME280;50639;53.270;7.956;2024-02-23T09:42:28;98967.13;;;7.37;77.90
64298;BME280;50639;53.270;7.956;2024-02-23T09:44:59;98971.91;;;7.53;77.75
64298;BME280;50639;53.270;7.956;2024-02-23T09:47:28;98956.94;;;7.47;77.69
64298;BME280;50639;53.270;7.956;2024-02-23T09:49:54;98959.97;;;7.52;78.57
64298;BME280;50639;53.270;7.956;2024-02-23T09:52:20;98958.53;;;7.59;78.73
64298;BME280;50639;53.270;7.956;2024-02-23T09:54:46;98955.94;;;7.81;76.46
64298;BME280;50639;53.270;7.956;2024-02-23T09:57:13;98945.63;;;7.81;76.22
64298;BME280;50639;53.270;7.956;2024-02-23T09:59:39;98962.25;;;7.88;75.61
64298;BME280;50639;53.270;7.956;2024-02-23T10:02:13;98961.78;;;7.83;75.03
64298;BME280;50639;53.270;7.956;2024-02-23T10:04:40;98962.25;;;7.88;75.89
64298;BME280;50639;53.270;7.956;2024-02-23T10:07:06;98965.03;;;7.97;74.59
64298;BME280;50639;53.270;7.956;2024-02-23T10:09:32;98969.75;;;7.91;75.52
64298;BME280;50639;53.270;7.956;2024-02-23T10:11:57;98968.31;;;7.99;74.43
64298;BME280;50639;53.270;7.956;2024-02-23T10:14:23;98982.28;;;7.85;75.25
64298;BME280;50639;53.270;7.956;2024-02-23T10:16:48;98985.44;;;7.77;75.04
64298;BME280;50639;53.270;7.956;2024-02-23T10:19:19;98986.97;;;7.91;74.32
64298;BME280;50639;53.270;7.956;2024-02-23T10:21:45;98988.94;;;7.99;74.33
64298;BME280;50639;53.270;7.956;2024-02-23T10:24:11;99003.19;;;8.03;74.31
64298;BME280;50639;53.270;7.956;2024-02-23T10:26:36;99008.66;;;8.20;74.49
64298;BME280;50639;53.270;7.956;2024-02-23T10:29:01;99007.91;;;7.98;74.12
64298;BME280;50639;53.270;7.956;2024-02-23T10:31:33;99020.44;;;8.02;73.97
64298;BME280;50639;53.270;7.956;2024-02-23T10:33:59;99017.94;;;8.12;74.63
64298;BME280;50639;53.270;7.956;2024-02-23T10:36:27;99020.78;;;8.09;74.47
64298;BME280;50639;53.270;7.956;2024-02-23T10:38:59;99019.09;;;8.19;74.27
64298;BME280;50639;53.270;7.956;2024-02-23T10:41:29;99023.78;;;8.25;74.05
64298;BME280;50639;53.270;7.956;2024-02-23T10:43:59;99024.13;;;8.20;73.78
64298;BME280;50639;53.270;7.956;2024-02-23T10:46:25;99028.41;;;7.99;74.03
64298;BME280;50639;53.270;7.956;2024-02-23T10:48:52;99020.47;;;7.91;74.90
64298;BME280;50639;53.270;7.956;2024-02-23T10:51:19;99016.25;;;7.90;74.39
64298;BME280;50639;53.270;7.956;2024-02-23T10:53:45;99014.22;;;8.05;74.47
64298;BME280;50639;53.270;7.956;2024-02-23T10:56:11;99025.56;;;8.13;73.99
64298;BME280;50639;53.270;7.956;2024-02-23T10:58:37;99019.69;;;8.22;72.94
64298;BME280;50639;53.270;7.956;2024-02-23T11:01:05;99018.59;;;8.36;72.63
64298;BME280;50639;53.270;7.956;2024-02-23T11:03:34;99007.41;;;8.15;72.99
64298;BME280;50639;53.270;7.956;2024-02-23T11:06:00;99010.69;;;8.17;72.23
64298;BME280;50639;53.270;7.956;2024-02-23T11:08:29;99019.56;;;8.24;71.37
64298;BME280;50639;53.270;7.956;2024-02-23T11:10:55;99016.50;;;8.30;71.68
64298;BME280;50639;53.270;7.956;2024-02-23T11:13:30;99021.69;;;8.19;71.09
64298;BME280;50639;53.270;7.956;2024-02-23T11:16:04;99021.81;;;8.17;71.57
64298;BME280;50639;53.270;7.956;2024-02-23T11:18:30;99018.75;;;8.23;71.03
64298;BME280;50639;53.270;7.956;2024-02-23T11:21:01;99030.38;;;8.18;71.33
64298;BME280;50639;53.270;7.956;2024-02-23T11:23:39;99032.56;;;8.22;69.86
64298;BME280;50639;53.270;7.956;2024-02-23T11:26:05;99034.00;;;8.15;71.41
64298;BME280;50639;53.270;7.956;2024-02-23T11:28:48;99033.69;;;8.09;72.64
64298;BME280;50639;53.270;7.956;2024-02-23T11:31:15;99040.00;;;8.05;73.12
64298;BME280;50639;53.270;7.956;2024-02-23T11:33:52;99046.09;;;8.15;73.34
64298;BME280;50639;53.270;7.956;2024-02-23T11:36:24;99042.47;;;8.06;73.08
64298;BME280;50639;53.270;7.956;2024-02-23T11:38:52;99044.09;;;8.07;72.56
64298;BME280;50639;53.270;7.956;2024-02-23T11:41:20;99041.53;;;7.96;72.31
64298;BME280;50639;53.270;7.956;2024-02-23T11:43:46;99043.53;;;7.92;73.19
64298;BME280;50639;53.270;7.956;2024-02-23T11:46:12;99043.63;;;8.02;73.84
64298;BME280;50639;53.270;7.956;2024-02-23T11:48:37;99034.19;;;7.91;73.41
64298;BME280;50639;53.270;7.956;2024-02-23T11:51:03;99038.38;;;7.92;73.67
64298;BME280;50639;53.270;7.956;2024-02-23T11:53:29;99029.03;;;7.91;73.41
64298;BME280;50639;53.270;7.956;2024-02-23T11:55:55;99039.34;;;7.91;73.48
64298;BME280;50639;53.270;7.956;2024-02-23T11:58:20;99034.50;;;7.98;72.63
64298;BME280;50639;53.270;7.956;2024-02-23T12:00:46;99031.44;;;8.04;72.58
64298;BME280;50639;53.270;7.956;2024-02-23T12:03:11;99032.75;;;7.99;72.74
64298;BME280;50639;53.270;7.956;2024-02-23T12:05:37;99025.13;;;7.97;73.16
64298;BME280;50639;53.270;7.956;2024-02-23T12:08:02;99025.97;;;7.98;73.22
64298;BME280;50639;53.270;7.956;2024-02-23T12:10:28;99031.44;;;8.04;73.65
64298;BME280;50639;53.270;7.956;2024-02-23T12:12:54;99036.72;;;8.03;72.76
64298;BME280;50639;53.270;7.956;2024-02-23T12:15:21;99034.63;;;8.08;73.52
64298;BME280;50639;53.270;7.956;2024-02-23T12:17:47;99038.88;;;8.29;73.33
64298;BME280;50639;53.270;7.956;2024-02-23T12:20:13;99031.22;;;8.50;72.74
64298;BME280;50639;53.270;7.956;2024-02-23T12:22:40;99041.09;;;8.45;72.02
64298;BME280;50639;53.270;7.956;2024-02-23T12:25:06;99038.56;;;8.23;72.39
64298;BME280;50639;53.270;7.956;2024-02-23T12:27:31;99024.97;;;8.21;72.39
64298;BME280;50639;53.270;7.956;2024-02-23T12:29:57;99033.84;;;8.28;73.13
64298;BME280;50639;53.270;7.956;2024-02-23T12:32:23;99027.63;;;8.30;72.86
64298;BME280;50639;53.270;7.956;2024-02-23T12:34:48;99030.81;;;8.34;73.18
64298;BME280;50639;53.270;7.956;2024-02-23T12:37:17;99011.00;;;8.35;73.50
64298;BME280;50639;53.270;7.956;2024-02-23T12:39:44;99016.69;;;8.49;71.98
64298;BME280;50639;53.270;7.956;2024-02-23T12:42:09;99018.88;;;8.54;72.38
64298;BME280;50639;53.270;7.956;2024-02-23T12:44:35;99014.63;;;8.43;71.33
64298;BME280;50639;53.270;7.956;2024-02-23T12:47:00;99016.50;;;8.30;72.05
64298;BME280;50639;53.270;7.956;2024-02-23T12:49:26;99007.50;;;8.24;71.86
64298;BME280;50639;53.270;7.956;2024-02-23T12:51:51;99022.47;;;8.42;71.59
64298;BME280;50639;53.270;7.956;2024-02-23T12:54:17;99013.38;;;8.58;72.41
64298;BME280;50639;53.270;7.956;2024-02-23T12:56:42;99015.78;;;8.39;71.78
64298;BME280;50639;53.270;7.956;2024-02-23T12:59:08;99026.00;;;8.41;72.70
64298;BME280;50639;53.270;7.956;2024-02-23T13:01:35;99021.56;;;8.32;72.75
64298;BME280;50639;53.270;7.956;2024-02-23T13:04:03;99018.88;;;8.33;73.53